Terminal Aerodrome Forecast
Issued by NWS

Home | Current Version | Previous Version | Text Only | Print | Product List | Glossary On
Versions: 1 2 3 4 5 6 7 8 9 10 11 12 13 14 15 16 17 18 19 20 21 22 23 24 25 26 27 28 29 30 31 32 33 34 35 36 37 38 39 40 41 42 43 44 45 46 47 48 49 50
000
FTUS41 KRNK 210933 AAB
TAFBCB
TAF AMD
KBCB 210933Z 2110/2206 VRB03KT P6SM -RA SCT015 BKN035
      TEMPO 2111/2113 4SM BR OVC015
     FM211300 29006KT P6SM BKN035
     FM211700 30010G18KT P6SM VCSH BKN025
     FM220300 31007KT P6SM OVC015=

USA.gov is the U.S. government's official web portal to all federal, state and local government web resources and services.